Terminal Aerodrome Forecast
Issued by NWS

Home | Current Version | Previous Version | Text Only | Print | Product List | Glossary Off
Versions: 1 2 3 4 5 6 7 8 9 10 11 12 13 14 15 16 17 18 19 20

000
FTUS43 KABR 271700
TAFATY
TAF
KATY 271739Z 2718/2818 16013KT P6SM FEW003 FEW250
     FM272300 16008KT P6SM SCT003
      TEMPO 2800/2804 1SM BR BKN003
     FM280400 16007KT 1SM BR OVC003=

USA.gov is the U.S. government's official web portal to all federal, state and local government web resources and services.